Time;durP1;ratioP1;P1;durP2;ratioP2;P2;SDS_P1;SDS_P2;PMS_P1;PMS_P2;Temp;Humidity;BMP_temperature;BMP_pressure;BME280_temperature;BME280_humidity;BME280_pressure;Samples;Min_cycle;Max_cycle;Signal;HPM_P1;HPM_P2
2023/05/07 00:02:03;;;;;;;18.80;15.57;;;9.00;1.00;;;;;;6268369;22;20370;-89
2023/05/07 00:04:37;;;;;;;21.33;16.30;;;;;;;;;;6277608;22;20429;-89
2023/05/07 00:07:13;;;;;;;17.00;14.77;;;;;;;;;;6277997;22;20398;-90
2023/05/07 00:10:06;;;;;;;17.20;15.17;;;9.00;1.00;;;;;;6263031;22;20457;-90
2023/05/07 00:12:45;;;;;;;20.20;15.40;;;9.00;1.00;;;;;;6255632;23;20426;-91
2023/05/07 00:15:17;;;;;;;21.30;16.40;;;;;;;;;;6258728;23;20390;-90
2023/05/07 00:18:03;;;;;;;20.87;14.83;;;9.00;1.00;;;;;;6270715;22;20417;-90
2023/05/07 00:20:49;;;;;;;16.23;14.57;;;9.00;99.90;;;;;;6258421;22;20426;-90
2023/05/07 00:23:38;;;;;;;18.43;15.90;;;9.00;99.90;;;;;;6258741;23;20678;-91
2023/05/07 00:26:29;;;;;;;;;;;;;;;;;;;;;
2023/05/07 00:38:05;;;;;;;16.80;15.03;;;9.10;99.90;;;;;;6286193;22;20416;-90
2023/05/07 00:43:23;;;;;;;16.60;15.00;;;9.10;99.90;;;;;;6279730;22;20432;-83
2023/05/07 00:45:49;;;;;;;14.43;12.70;;;9.10;99.90;;;;;;6281210;22;20378;-84
2023/05/07 00:48:17;;;;;;;19.27;13.70;;;9.10;99.90;;;;;;6281160;22;20401;-84
2023/05/07 00:50:44;;;;;;;16.53;14.50;;;9.00;99.90;;;;;;6282517;22;20917;-84
2023/05/07 00:53:11;;;;;;;14.93;13.43;;;9.10;1.00;;;;;;6284785;22;20515;-84
2023/05/07 00:55:38;;;;;;;17.77;13.23;;;9.00;99.90;;;;;;6299983;22;20395;-83
2023/05/07 00:58:05;;;;;;;16.53;14.83;;;9.00;99.90;;;;;;6305944;22;20393;-83
2023/05/07 01:00:33;;;;;;;21.57;14.70;;;9.00;99.90;;;;;;6302124;22;20405;-83
2023/05/07 01:03:00;;;;;;;17.40;14.83;;;9.00;99.90;;;;;;6287171;22;20760;-84
2023/05/07 01:05:28;;;;;;;17.37;14.27;;;9.00;99.90;;;;;;6285034;22;20468;-84
2023/05/07 01:07:57;;;;;;;16.50;14.23;;;9.00;99.90;;;;;;6285069;22;20401;-83
2023/05/07 01:10:25;;;;;;;16.33;13.87;;;8.90;99.90;;;;;;6283608;22;20409;-84
2023/05/07 01:12:53;;;;;;;16.83;14.80;;;8.80;1.00;;;;;;6283818;22;20440;-83
2023/05/07 01:15:20;;;;;;;18.90;16.80;;;9.00;99.90;;;;;;6284935;22;20519;-84
2023/05/07 01:17:48;;;;;;;18.90;14.03;;;8.90;99.90;;;;;;6285368;22;20413;-83
2023/05/07 01:20:15;;;;;;;18.83;15.50;;;8.80;99.90;;;;;;6283560;22;20492;-84
2023/05/07 01:22:44;;;;;;;17.03;15.20;;;8.90;99.90;;;;;;6283106;22;20967;-83
2023/05/07 01:25:11;;;;;;;19.47;15.20;;;9.00;99.90;;;;;;6284070;22;20775;-83
2023/05/07 01:27:38;;;;;;;16.87;15.00;;;8.90;99.90;;;;;;6283063;22;21016;-84
2023/05/07 01:30:06;;;;;;;15.80;14.20;;;8.90;99.90;;;;;;6288142;22;20398;-85
2023/05/07 01:32:37;;;;;;;18.20;16.10;;;8.90;99.90;;;;;;6290141;22;20455;-85
2023/05/07 01:35:06;;;;;;;16.00;13.93;;;8.90;99.90;;;;;;6287605;22;20444;-85
2023/05/07 01:37:33;;;;;;;18.40;14.33;;;8.90;99.90;;;;;;6285224;22;20454;-84
2023/05/07 01:40:02;;;;;;;15.90;13.80;;;8.90;99.90;;;;;;6296150;22;20411;-82
2023/05/07 01:42:30;;;;;;;16.73;14.70;;;8.90;99.90;;;;;;6306290;22;20376;-83
2023/05/07 01:44:57;;;;;;;16.60;14.20;;;8.90;99.90;;;;;;6294161;22;20468;-84
2023/05/07 01:47:24;;;;;;;16.07;14.43;;;8.90;99.90;;;;;;6294344;22;20424;-84
2023/05/07 01:49:51;;;;;;;15.40;13.90;;;8.90;99.90;;;;;;6280448;22;20409;-84
2023/05/07 01:52:18;;;;;;;12.73;11.37;;;8.90;99.90;;;;;;6281405;22;20409;-84
2023/05/07 01:54:45;;;;;;;15.50;14.00;;;9.10;99.90;;;;;;6290724;22;20444;-84
2023/05/07 01:57:13;;;;;;;14.83;13.03;;;8.90;99.90;;;;;;6304505;22;20420;-84
2023/05/07 01:59:40;;;;;;;16.27;13.70;;;9.00;99.90;;;;;;6282941;22;20488;-85
2023/05/07 02:02:07;;;;;;;14.90;13.00;;;9.00;99.90;;;;;;6280268;22;20433;-84
2023/05/07 02:04:36;;;;;;;16.83;14.67;;;8.90;99.90;;;;;;6280157;22;20451;-85
2023/05/07 02:07:03;;;;;;;16.20;13.87;;;8.90;99.90;;;;;;6281254;22;20420;-83
2023/05/07 02:09:30;;;;;;;14.57;13.10;;;8.90;99.90;;;;;;6281380;22;20723;-84
2023/05/07 02:11:56;;;;;;;13.30;11.77;;;8.90;99.90;;;;;;6280823;22;20375;-84
2023/05/07 02:14:25;;;;;;;14.60;13.03;;;9.00;99.90;;;;;;6279984;22;20444;-84
2023/05/07 02:16:52;;;;;;;13.77;12.37;;;8.90;99.90;;;;;;6280802;22;20719;-84
2023/05/07 02:19:20;;;;;;;15.53;13.27;;;8.90;99.90;;;;;;6279553;22;20493;-84
2023/05/07 02:21:47;;;;;;;15.40;13.60;;;8.90;99.90;;;;;;6286385;22;20394;-84
2023/05/07 02:24:14;;;;;;;17.93;12.77;;;9.00;99.90;;;;;;6301781;22;20415;-85
2023/05/07 02:26:41;;;;;;;14.43;13.13;;;8.90;99.90;;;;;;6305329;22;20415;-83
2023/05/07 02:29:08;;;;;;;17.20;13.37;;;8.80;99.90;;;;;;6304621;22;20406;-84
2023/05/07 02:31:36;;;;;;;14.40;12.87;;;8.90;99.90;;;;;;6288154;22;20425;-84
2023/05/07 02:34:03;;;;;;;16.27;12.47;;;8.90;99.90;;;;;;6296544;22;20476;-84
2023/05/07 02:36:30;;;;;;;22.40;14.10;;;8.90;99.90;;;;;;6296205;22;20409;-85
2023/05/07 02:38:57;;;;;;;14.47;12.97;;;8.90;99.90;;;;;;6290943;22;20407;-84
2023/05/07 02:41:24;;;;;;;14.83;13.33;;;8.90;99.90;;;;;;6285020;22;20376;-84
2023/05/07 02:43:51;;;;;;;18.13;13.60;;;8.90;99.90;;;;;;6283712;22;20510;-84
2023/05/07 02:46:18;;;;;;;20.00;14.60;;;8.90;99.90;;;;;;6283046;22;20462;-84
2023/05/07 02:48:46;;;;;;;17.93;14.30;;;8.90;99.90;;;;;;6281800;22;20409;-85
2023/05/07 02:51:13;;;;;;;14.80;12.63;;;9.00;99.90;;;;;;6280911;22;20397;-84
2023/05/07 02:53:40;;;;;;;14.57;12.90;;;9.20;99.90;;;;;;6279886;22;20735;-84
2023/05/07 02:56:07;;;;;;;19.27;15.27;;;9.00;99.90;;;;;;6279095;22;20440;-84
2023/05/07 02:58:36;;;;;;;15.60;13.47;;;9.00;99.90;;;;;;6278802;22;20439;-84
2023/05/07 03:01:03;;;;;;;15.77;14.07;;;9.00;99.90;;;;;;6279424;22;20433;-84
2023/05/07 03:03:30;;;;;;;22.00;15.70;;;9.00;63.60;;;;;;6279593;22;20927;-84
2023/05/07 03:05:58;;;;;;;18.33;13.13;;;9.00;90.30;;;;;;6281372;22;20401;-84
2023/05/07 03:08:25;;;;;;;14.60;12.47;;;9.00;95.50;;;;;;6282284;22;20410;-84
2023/05/07 03:10:52;;;;;;;15.40;13.30;;;9.10;99.90;;;;;;6283502;22;20790;-84
2023/05/07 03:13:19;;;;;;;14.73;13.23;;;8.90;91.50;;;;;;6284037;22;20423;-83
2023/05/07 03:15:46;;;;;;;14.93;12.10;;;9.00;16.20;;;;;;6283182;22;20447;-84
2023/05/07 03:18:13;;;;;;;13.00;11.50;;;8.90;1.00;;;;;;6282642;22;20463;-84
2023/05/07 03:20:40;;;;;;;14.87;13.27;;;8.90;1.00;;;;;;6297960;22;20466;-83
2023/05/07 03:23:08;;;;;;;15.90;12.80;;;8.90;25.50;;;;;;6298975;22;20421;-83
2023/05/07 03:25:35;;;;;;;14.77;12.90;;;8.90;1.00;;;;;;6298386;22;20395;-84
2023/05/07 03:28:02;;;;;;;15.97;12.33;;;9.20;99.90;;;;;;6288349;22;20409;-83
2023/05/07 03:30:29;;;;;;;14.30;12.60;;;8.90;1.00;;;;;;6292615;22;20429;-84
2023/05/07 03:32:56;;;;;;;13.90;12.50;;;8.90;33.40;;;;;;6293689;22;20409;-83
2023/05/07 03:35:23;;;;;;;15.33;11.93;;;8.90;1.00;;;;;;6294037;22;20418;-84
2023/05/07 03:37:50;;;;;;;14.50;12.10;;;8.90;1.00;;;;;;6291207;22;20409;-84
2023/05/07 03:40:18;;;;;;;17.60;13.67;;;8.90;1.00;;;;;;6281400;22;20496;-84
2023/05/07 03:42:45;;;;;;;16.33;13.47;;;8.70;5.10;;;;;;6282030;22;20397;-84
2023/05/07 03:45:12;;;;;;;15.33;13.40;;;8.80;1.00;;;;;;6292942;22;20404;-85
2023/05/07 03:47:39;;;;;;;17.90;14.37;;;8.90;1.00;;;;;;6289136;22;20404;-85
2023/05/07 03:50:06;;;;;;;19.57;14.53;;;8.90;1.00;;;;;;6279347;22;20405;-85
2023/05/07 03:52:33;;;;;;;14.30;12.80;;;8.90;1.00;;;;;;6281062;22;20484;-85
2023/05/07 03:55:00;;;;;;;15.47;13.70;;;9.00;43.70;;;;;;6278974;22;20440;-85
2023/05/07 03:57:28;;;;;;;14.50;12.90;;;8.90;1.00;;;;;;6278530;22;20405;-86
2023/05/07 03:59:55;;;;;;;14.67;13.13;;;8.90;1.00;;;;;;6278664;22;20409;-85
2023/05/07 04:02:22;;;;;;;16.70;13.53;;;8.80;1.00;;;;;;6278515;22;20441;-85
2023/05/07 04:04:50;;;;;;;17.00;13.27;;;8.70;38.60;;;;;;6278902;22;20999;-85
2023/05/07 04:07:17;;;;;;;14.77;13.27;;;8.80;1.00;;;;;;6278718;22;20743;-85
2023/05/07 04:09:43;;;;;;;14.67;13.20;;;8.90;99.90;;;;;;6279172;22;20462;-85
2023/05/07 04:12:10;;;;;;;15.43;13.67;;;8.80;1.00;;;;;;6279396;22;20462;-85
2023/05/07 04:14:39;;;;;;;14.40;12.87;;;8.90;99.90;;;;;;6281284;22;20845;-85
2023/05/07 04:17:06;;;;;;;15.53;13.03;;;8.80;1.00;;;;;;6281726;22;20405;-85
2023/05/07 04:19:35;;;;;;;17.80;12.50;;;8.80;1.00;;;;;;6306107;22;20460;-84
2023/05/07 04:22:02;;;;;;;13.80;12.50;;;8.60;97.20;;;;;;6306840;22;20368;-84
2023/05/07 04:24:31;;;;;;;17.63;12.37;;;8.70;1.00;;;;;;6306945;22;20404;-84
2023/05/07 04:26:58;;;;;;;12.63;11.40;;;8.70;1.00;;;;;;6305919;22;20401;-84
2023/05/07 04:29:25;;;;;;;14.27;11.93;;;9.00;74.40;;;;;;6305137;22;20401;-85
2023/05/07 04:31:55;;;;;;;14.93;11.93;;;8.80;1.00;;;;;;6295512;22;20432;-85
2023/05/07 04:34:22;;;;;;;14.50;12.23;;;8.80;1.00;;;;;;6288098;22;20749;-85
2023/05/07 04:36:49;;;;;;;15.33;12.00;;;8.80;1.00;;;;;;6287466;22;20439;-85
2023/05/07 04:39:16;;;;;;;12.70;10.30;;;8.80;1.00;;;;;;6287122;22;20394;-85
2023/05/07 04:41:43;;;;;;;12.33;11.13;;;8.90;1.00;;;;;;6284439;22;20405;-85
2023/05/07 04:44:10;;;;;;;11.83;10.63;;;8.90;1.00;;;;;;6283327;22;20452;-86
2023/05/07 04:46:37;;;;;;;15.30;11.00;;;8.70;1.00;;;;;;6284257;22;20439;-86
2023/05/07 04:49:05;;;;;;;14.73;11.47;;;8.90;1.00;;;;;;6306817;22;20389;-84
2023/05/07 04:51:35;;;;;;;15.30;13.47;;;9.00;1.00;;;;;;6300636;22;20413;-85
2023/05/07 04:54:02;;;;;;;12.67;10.90;;;8.90;1.00;;;;;;6282787;22;20424;-85
2023/05/07 04:56:29;;;;;;;13.80;11.05;;;8.90;1.00;;;;;;6284781;22;20411;-86
2023/05/07 04:58:56;;;;;;;12.43;10.77;;;8.90;1.00;;;;;;6302245;22;20230;-85
2023/05/07 05:01:23;;;;;;;11.70;10.50;;;8.90;1.00;;;;;;6305510;22;20413;-85
2023/05/07 05:03:50;;;;;;;11.37;9.57;;;8.70;1.00;;;;;;6305010;22;20416;-84
2023/05/07 05:06:18;;;;;;;10.77;9.40;;;8.90;99.90;;;;;;6303795;22;20356;-84
2023/05/07 05:08:45;;;;;;;12.77;10.37;;;9.00;99.90;;;;;;6306189;22;20393;-84
2023/05/07 05:11:12;;;;;;;11.13;9.97;;;9.00;99.90;;;;;;6295793;22;20431;-84
2023/05/07 05:13:39;;;;;;;14.53;9.43;;;9.00;99.90;;;;;;6295153;22;20465;-84
2023/05/07 05:16:06;;;;;;;12.43;9.63;;;9.00;99.90;;;;;;6305238;22;20515;-84
2023/05/07 05:18:34;;;;;;;11.63;9.67;;;9.10;99.90;;;;;;6304160;22;20464;-84
2023/05/07 05:21:01;;;;;;;10.07;8.90;;;9.00;99.90;;;;;;6290806;22;20408;-84
2023/05/07 05:23:30;;;;;;;12.23;9.17;;;9.00;99.90;;;;;;6281501;22;20508;-84
2023/05/07 05:25:57;;;;;;;11.17;9.87;;;9.00;99.90;;;;;;6281144;22;20405;-84
2023/05/07 05:28:24;;;;;;;13.40;11.20;;;9.00;99.90;;;;;;6281333;22;20405;-84
2023/05/07 05:30:51;;;;;;;9.23;8.07;;;9.00;99.90;;;;;;6281123;22;20435;-85
2023/05/07 05:33:18;;;;;;;12.13;10.00;;;9.10;99.90;;;;;;6280498;22;20728;-85
2023/05/07 05:35:45;;;;;;;11.50;9.77;;;9.20;99.90;;;;;;6280469;22;20441;-84
2023/05/07 05:38:12;;;;;;;11.13;9.93;;;9.10;99.90;;;;;;6281125;22;20701;-84
2023/05/07 05:40:43;;;;;;;11.50;10.30;;;9.00;99.90;;;;;;6284041;22;20932;-85
2023/05/07 05:43:09;;;;;;;11.43;10.30;;;9.10;99.90;;;;;;6282625;22;20479;-84
2023/05/07 05:45:36;;;;;;;11.90;10.70;;;9.20;99.90;;;;;;6292629;22;20874;-85
2023/05/07 05:48:03;;;;;;;11.83;9.00;;;9.00;99.90;;;;;;6283483;22;20413;-85
2023/05/07 05:50:30;;;;;;;9.70;8.90;;;9.10;99.90;;;;;;6281802;22;20408;-85
2023/05/07 05:52:57;;;;;;;10.70;9.63;;;9.30;99.90;;;;;;6280960;22;20541;-86
2023/05/07 05:55:24;;;;;;;10.73;9.63;;;9.20;93.90;;;;;;6280144;22;20494;-86
2023/05/07 05:57:53;;;;;;;12.17;10.50;;;9.20;47.90;;;;;;6288068;22;20423;-86
2023/05/07 06:00:22;;;;;;;11.27;10.07;;;9.10;45.10;;;;;;6299033;22;20428;-85
2023/05/07 06:02:49;;;;;;;10.40;9.30;;;9.60;99.90;;;;;;6300961;22;20389;-83
2023/05/07 06:05:16;;;;;;;11.23;9.30;;;9.30;1.00;;;;;;6299258;22;20401;-82
2023/05/07 06:07:43;;;;;;;9.73;7.80;;;9.20;1.00;;;;;;6297885;22;20405;-82
2023/05/07 06:10:10;;;;;;;9.60;8.70;;;9.20;1.00;;;;;;6292553;22;20412;-83
2023/05/07 06:12:37;;;;;;;8.23;7.43;;;9.30;55.50;;;;;;6288108;22;20436;-83
2023/05/07 06:15:06;;;;;;;9.80;8.40;;;9.30;1.00;;;;;;6287825;22;20483;-83
2023/05/07 06:17:33;;;;;;;10.27;9.00;;;9.60;1.00;;;;;;6285364;22;20415;-82
2023/05/07 06:20:00;;;;;;;11.03;8.53;;;9.60;1.00;;;;;;6287172;22;20406;-83
2023/05/07 06:22:27;;;;;;;10.30;9.40;;;9.50;1.00;;;;;;6296925;22;20428;-82
2023/05/07 06:24:54;;;;;;;11.57;9.60;;;9.50;1.00;;;;;;6304861;22;20448;-81
2023/05/07 06:27:20;;;;;;;9.33;8.53;;;9.80;1.00;;;;;;6295614;22;20662;-82
2023/05/07 06:29:49;;;;;;;9.80;7.97;;;9.70;1.00;;;;;;6286130;22;20440;-83
2023/05/07 06:32:17;;;;;;;9.33;8.20;;;9.70;1.00;;;;;;6284470;22;20711;-81
2023/05/07 06:34:44;;;;;;;11.20;9.03;;;9.70;1.00;;;;;;6283502;22;20403;-82
2023/05/07 06:37:11;;;;;;;9.77;8.07;;;9.70;1.00;;;;;;6283811;22;20977;-82
2023/05/07 06:39:38;;;;;;;9.10;8.20;;;9.70;1.00;;;;;;6283443;22;20928;-82
2023/05/07 06:42:05;;;;;;;14.40;9.60;;;9.70;1.00;;;;;;6283058;22;20992;-82
2023/05/07 06:44:32;;;;;;;11.03;8.90;;;;;;;;;;6286435;22;20531;-87
2023/05/07 06:47:00;;;;;;;11.37;8.47;;;;;;;;;;6297272;22;20527;-88
2023/05/07 06:49:28;;;;;;;9.40;8.50;;;10.00;1.00;;;;;;6288849;22;20387;-87
2023/05/07 06:51:55;;;;;;;9.67;8.07;;;10.80;1.00;;;;;;6286301;22;20409;-87
2023/05/07 06:54:22;;;;;;;11.00;8.80;;;9.90;99.90;;;;;;6295534;22;20737;-88
2023/05/07 06:56:49;;;;;;;8.80;7.90;;;10.00;1.00;;;;;;6292818;22;20489;-87
2023/05/07 06:59:16;;;;;;;9.67;8.27;;;10.10;99.90;;;;;;6296510;22;20432;-87
2023/05/07 07:01:43;;;;;;;8.57;7.80;;;10.10;99.90;;;;;;6292009;22;20948;-88
2023/05/07 07:04:10;;;;;;;8.40;7.57;;;;;;;;;;6303583;22;20421;-88
2023/05/07 07:06:38;;;;;;;13.50;8.10;;;10.20;99.90;;;;;;6292581;22;20432;-87
2023/05/07 07:09:05;;;;;;;8.57;7.70;;;11.50;82.20;;;;;;6287616;22;20408;-88
2023/05/07 07:11:32;;;;;;;9.70;7.90;;;10.00;99.90;;;;;;6289612;22;20413;-89
2023/05/07 07:13:59;;;;;;;8.43;7.40;;;;;;;;;;6289640;22;20407;-87
2023/05/07 07:16:26;;;;;;;9.40;8.40;;;10.50;99.90;;;;;;6288305;22;20527;-88
2023/05/07 07:18:53;;;;;;;9.60;8.53;;;;;;;;;;6289783;22;20380;-88
2023/05/07 07:21:20;;;;;;;10.43;7.13;;;10.70;1.00;;;;;;6288532;22;20404;-87
2023/05/07 07:23:49;;;;;;;10.03;7.23;;;10.60;1.00;;;;;;6289396;22;20467;-86
2023/05/07 07:26:15;;;;;;;9.70;7.30;;;10.60;1.00;;;;;;6293620;22;20404;-86
2023/05/07 07:28:46;;;;;;;7.17;6.57;;;10.70;1.00;;;;;;6285903;22;20409;-86
2023/05/07 07:31:13;;;;;;;6.77;5.90;;;;;;;;;;6290219;22;20850;-87
2023/05/07 07:33:40;;;;;;;6.87;6.00;;;10.90;73.70;;;;;;6287537;22;20460;-88
2023/05/07 07:36:07;;;;;;;6.10;5.50;;;11.10;99.90;;;;;;6286589;22;20441;-86
2023/05/07 07:38:35;;;;;;;6.53;5.83;;;11.30;99.90;;;;;;6287047;22;20913;-86
2023/05/07 07:41:03;;;;;;;6.50;6.00;;;11.30;99.90;;;;;;6286249;22;20746;-87
2023/05/07 07:43:30;;;;;;;6.37;5.80;;;;;;;;;;6286782;22;20483;-88
2023/05/07 07:45:57;;;;;;;7.63;6.83;;;11.60;99.90;;;;;;6286845;22;20717;-87
2023/05/07 07:48:24;;;;;;;6.93;6.23;;;11.80;99.90;;;;;;6292402;22;20412;-88
2023/05/07 07:50:51;;;;;;;6.63;5.70;;;;;;;;;;6291044;22;20435;-88
2023/05/07 07:53:18;;;;;;;6.77;6.17;;;11.80;99.90;;;;;;6296907;22;20435;-86
2023/05/07 07:55:45;;;;;;;6.10;5.50;;;11.90;1.00;;;;;;6305500;22;20497;-86
2023/05/07 07:58:14;;;;;;;7.27;6.60;;;12.10;1.00;;;;;;6303540;22;20398;-86
2023/05/07 08:00:41;;;;;;;5.67;5.07;;;;;;;;;;6295390;22;20412;-86
2023/05/07 08:03:10;;;;;;;6.80;5.10;;;12.00;99.90;;;;;;6306265;22;20381;-87
2023/05/07 08:05:38;;;;;;;6.10;5.50;;;12.30;11.30;;;;;;6307535;22;20382;-87
2023/05/07 08:08:05;;;;;;;6.37;5.87;;;11.70;99.90;;;;;;6307438;22;20388;-88
2023/05/07 08:10:34;;;;;;;5.00;4.50;;;11.60;99.90;;;;;;6304667;22;20432;-86
2023/05/07 08:13:01;;;;;;;7.23;5.60;;;11.50;1.00;;;;;;6295891;22;20416;-86
2023/05/07 08:15:29;;;;;;;8.27;5.90;;;11.90;1.00;;;;;;6288221;22;20432;-87
2023/05/07 08:17:57;;;;;;;6.27;5.50;;;11.50;34.10;;;;;;6286784;22;20936;-87
2023/05/07 08:20:24;;;;;;;6.00;5.40;;;;;;;;;;6286002;22;20448;-87
2023/05/07 08:22:54;;;;;;;4.53;4.13;;;11.90;11.40;;;;;;6286280;22;20444;-87
2023/05/07 08:25:22;;;;;;;4.93;4.57;;;;;;;;;;6290981;22;20425;-87
2023/05/07 08:27:49;;;;;;;6.73;4.93;;;12.10;1.00;;;;;;6286931;22;20500;-87
2023/05/07 08:30:16;;;;;;;14.40;10.50;;;12.10;14.50;;;;;;6286055;22;20393;-86
2023/05/07 08:32:44;;;;;;;6.60;5.23;;;11.90;1.00;;;;;;6286156;22;20443;-87
2023/05/07 08:35:11;;;;;;;5.43;4.57;;;11.80;99.90;;;;;;6288914;22;20425;-87
2023/05/07 08:37:38;;;;;;;5.50;5.00;;;;;;;;;;6297624;22;21037;-86
2023/05/07 08:40:14;;;;;;;6.80;4.43;;;12.10;1.00;;;;;;6285969;22;20413;-87
2023/05/07 08:42:44;;;;;;;4.80;4.50;;;;;;;;;;6288234;22;20388;-87
2023/05/07 08:45:11;;;;;;;5.77;4.30;;;12.30;1.00;;;;;;6287096;22;20420;-85
2023/05/07 08:47:46;;;;;;;5.00;4.50;;;12.30;1.00;;;;;;6286386;22;20429;-87
2023/05/07 08:50:13;;;;;;;5.10;4.70;;;;;;;;;;6288081;22;20402;-86
2023/05/07 08:52:57;;;;;;;4.90;4.33;;;12.50;1.00;;;;;;6288372;22;20912;-88
2023/05/07 08:55:25;;;;;;;4.33;4.00;;;13.00;1.00;;;;;;6288000;22;20425;-88
2023/05/07 09:00:33;;;;;;;4.43;4.03;;;13.00;1.00;;;;;;6287911;22;20393;-86
2023/05/07 09:03:02;;;;;;;4.63;4.33;;;12.80;1.00;;;;;;6291102;22;20451;-87
2023/05/07 09:05:29;;;;;;;5.90;4.97;;;12.60;1.00;;;;;;6290196;22;20481;-86
2023/05/07 09:07:59;;;;;;;4.30;4.00;;;12.60;1.00;;;;;;6289289;22;20386;-86
2023/05/07 09:10:27;;;;;;;4.23;3.83;;;12.90;1.00;;;;;;6289333;22;20389;-87
2023/05/07 09:12:54;;;;;;;3.87;3.57;;;12.70;1.00;;;;;;6288880;22;20397;-87
2023/05/07 09:15:21;;;;;;;4.73;4.30;;;12.90;1.00;;;;;;6287771;22;20417;-87
2023/05/07 09:17:48;;;;;;;3.60;3.30;;;;;;;;;;6295973;22;20486;-87
2023/05/07 09:20:17;;;;;;;4.90;4.30;;;13.00;1.00;;;;;;6306034;22;20404;-88
2023/05/07 09:22:45;;;;;;;5.13;4.33;;;14.10;1.00;;;;;;6299477;22;20408;-87
2023/05/07 09:25:12;;;;;;;5.60;5.10;;;12.90;1.00;;;;;;6291540;22;20424;-86
2023/05/07 09:27:39;;;;;;;3.80;3.50;;;13.00;1.00;;;;;;6290786;22;20408;-87
2023/05/07 09:30:08;;;;;;;7.63;5.73;;;13.00;1.00;;;;;;6288046;22;20412;-87
2023/05/07 09:32:37;;;;;;;3.63;3.33;;;13.20;1.00;;;;;;6287396;22;20471;-88
2023/05/07 09:35:05;;;;;;;5.90;4.50;;;13.40;1.00;;;;;;6294854;22;20417;-86
2023/05/07 09:37:33;;;;;;;4.53;4.13;;;13.30;1.00;;;;;;6300598;22;20421;-86
2023/05/07 09:40:00;;;;;;;4.40;4.00;;;13.50;1.00;;;;;;6302045;22;20401;-86
2023/05/07 09:42:28;;;;;;;8.60;4.73;;;13.30;1.00;;;;;;6293078;22;20405;-87
2023/05/07 09:44:55;;;;;;;4.47;4.07;;;13.30;1.00;;;;;;6288107;22;20459;-87
2023/05/07 09:47:25;;;;;;;4.73;3.83;;;13.30;1.00;;;;;;6288480;22;20408;-87
2023/05/07 09:49:57;;;;;;;4.93;3.90;;;13.20;1.00;;;;;;6288501;22;20421;-87
2023/05/07 09:52:24;;;;;;;4.70;4.30;;;13.40;1.00;;;;;;6289404;22;20448;-86
2023/05/07 09:54:54;;;;;;;3.50;3.30;;;13.20;1.00;;;;;;6283226;22;20429;-87
2023/05/07 09:57:22;;;;;;;4.90;3.07;;;13.20;1.00;;;;;;6283943;22;20761;-86
2023/05/07 09:59:52;;;;;;;4.17;3.87;;;13.20;1.00;;;;;;6286296;22;20412;-87
2023/05/07 10:02:21;;;;;;;5.10;4.10;;;13.70;1.00;;;;;;6289461;22;20441;-86
2023/05/07 10:04:50;;;;;;;4.57;4.07;;;13.70;1.00;;;;;;6289668;22;20421;-87
2023/05/07 10:07:17;;;;;;;3.83;3.03;;;13.90;1.00;;;;;;6288589;22;20409;-87
2023/05/07 10:09:46;;;;;;;4.67;3.27;;;13.80;1.00;;;;;;6288461;22;20409;-87
2023/05/07 10:12:14;;;;;;;3.50;3.27;;;14.50;1.00;;;;;;6290123;22;20405;-86
2023/05/07 10:14:41;;;;;;;5.00;2.90;;;14.00;1.00;;;;;;6289548;22;20456;-87
2023/05/07 10:17:11;;;;;;;3.30;2.60;;;14.20;1.00;;;;;;6285525;22;20519;-87
2023/05/07 10:19:39;;;;;;;3.43;3.13;;;13.90;1.00;;;;;;6287150;22;20436;-87
2023/05/07 10:22:07;;;;;;;19.10;12.43;;;13.50;1.00;;;;;;6296408;22;20436;-87
2023/05/07 10:24:36;;;;;;;3.40;3.20;;;13.50;1.00;;;;;;6288701;22;20455;-87
2023/05/07 10:27:06;;;;;;;4.43;3.03;;;13.70;1.00;;;;;;6289374;22;20401;-86
2023/05/07 10:29:43;;;;;;;3.10;2.53;;;13.70;1.00;;;;;;6287799;22;20470;-87
2023/05/07 10:32:26;;;;;;;2.77;2.57;;;13.40;1.00;;;;;;6286656;22;20538;-87
2023/05/07 10:34:58;;;;;;;2.57;2.37;;;13.60;99.90;;;;;;6288422;22;20421;-84
2023/05/07 10:37:25;;;;;;;3.77;2.77;;;13.70;99.90;;;;;;6296910;22;20421;-86
2023/05/07 10:39:53;;;;;;;2.90;2.70;;;13.70;1.00;;;;;;6297427;22;20401;-86
2023/05/07 10:42:20;;;;;;;2.50;2.30;;;;;;;;;;6287270;22;20427;-87
2023/05/07 10:44:48;;;;;;;19.87;13.10;;;13.60;99.90;;;;;;6290889;22;20559;-87
2023/05/07 10:47:22;;;;;;;2.83;2.50;;;13.70;1.00;;;;;;6295105;22;20397;-87
2023/05/07 10:50:24;;;;;;;3.27;2.60;;;13.70;1.00;;;;;;6296924;22;20696;-87
2023/05/07 10:53:25;;;;;;;2.90;2.50;;;13.50;1.00;;;;;;6298500;22;20412;-86
2023/05/07 10:56:13;;;;;;;3.10;2.80;;;14.10;1.00;;;;;;6301764;22;20400;-85
2023/05/07 10:58:40;;;;;;;3.53;3.23;;;14.10;1.00;;;;;;6290869;22;20453;-86
2023/05/07 11:01:08;;;;;;;3.20;2.60;;;13.90;1.00;;;;;;6289538;22;20433;-87
2023/05/07 11:03:35;;;;;;;3.23;3.03;;;14.00;1.00;;;;;;6292303;22;20452;-87
2023/05/07 11:06:13;;;;;;;3.27;3.00;;;14.00;1.00;;;;;;6287688;22;20397;-87
2023/05/07 11:09:00;;;;;;;3.70;2.83;;;14.00;1.00;;;;;;6289055;22;20401;-86
2023/05/07 11:11:47;;;;;;;3.33;3.03;;;14.30;1.00;;;;;;6289799;22;20424;-87
2023/05/07 11:14:14;;;;;;;3.73;3.03;;;15.10;1.00;;;;;;6288195;22;20481;-87
2023/05/07 11:16:44;;;;;;;2.70;2.50;;;14.30;99.90;;;;;;6288414;22;20441;-87
2023/05/07 11:19:11;;;;;;;2.70;2.50;;;14.30;99.90;;;;;;6297150;22;20401;-87
2023/05/07 11:21:39;;;;;;;3.00;2.70;;;14.30;99.90;;;;;;6284707;22;20432;-87
2023/05/07 11:24:07;;;;;;;3.03;2.83;;;14.30;99.90;;;;;;6287930;22;20751;-86
2023/05/07 11:26:46;;;;;;;3.00;2.67;;;14.30;99.90;;;;;;6286207;22;20429;-86
2023/05/07 11:29:15;;;;;;;5.00;3.03;;;14.20;1.00;;;;;;6291483;22;20407;-86
2023/05/07 11:31:43;;;;;;;2.47;2.27;;;14.30;99.90;;;;;;6300869;22;20439;-87
2023/05/07 11:34:11;;;;;;;2.90;2.60;;;14.60;1.00;;;;;;6301393;22;20408;-87
2023/05/07 11:36:44;;;;;;;2.40;2.20;;;14.80;99.90;;;;;;6299604;22;20437;-87
2023/05/07 11:39:32;;;;;;;2.20;2.00;;;14.70;99.90;;;;;;6296997;22;20411;-87
2023/05/07 11:41:59;;;;;;;2.47;2.30;;;14.90;1.00;;;;;;6288854;22;20921;-87
2023/05/07 11:44:40;;;;;;;3.37;3.17;;;15.10;99.90;;;;;;6288228;22;20411;-87
2023/05/07 11:47:08;;;;;;;3.77;3.03;;;15.00;99.90;;;;;;6287488;22;20432;-87
2023/05/07 11:49:35;;;;;;;3.47;3.20;;;14.90;99.90;;;;;;6293530;22;20392;-87
2023/05/07 11:52:02;;;;;;;5.00;3.33;;;14.00;99.90;;;;;;6298246;22;20389;-87
2023/05/07 11:54:39;;;;;;;4.20;3.80;;;14.70;99.90;;;;;;6289898;22;20455;-87
2023/05/07 11:57:07;;;;;;;3.60;3.27;;;;;;;;;;6286945;22;20399;-87
2023/05/07 11:59:41;;;;;;;6.17;4.20;;;14.60;99.90;;;;;;6287891;22;20460;-85
2023/05/07 12:02:09;;;;;;;2.40;2.27;;;14.50;99.90;;;;;;6302320;22;20396;-87
2023/05/07 12:04:36;;;;;;;6.10;2.97;;;14.50;99.90;;;;;;6304828;22;20408;-85
2023/05/07 12:07:03;;;;;;;3.40;2.77;;;;;;;;;;6304492;22;20420;-85
2023/05/07 12:09:30;;;;;;;4.77;4.37;;;;;;;;;;6295616;22;20416;-86
2023/05/07 12:11:59;;;;;;;3.23;2.90;;;14.70;99.90;;;;;;6284235;22;20439;-86
2023/05/07 12:14:30;;;;;;;2.73;2.53;;;14.70;99.90;;;;;;6284470;22;20428;-86
2023/05/07 12:16:57;;;;;;;2.53;2.33;;;14.80;99.90;;;;;;6284594;22;20527;-87
2023/05/07 12:19:26;;;;;;;5.00;4.53;;;14.60;99.90;;;;;;6285051;22;20428;-87
2023/05/07 12:21:53;;;;;;;3.80;3.50;;;14.80;1.00;;;;;;6284814;22;20462;-88
2023/05/07 12:24:20;;;;;;;3.40;3.20;;;14.90;99.90;;;;;;6285711;22;20492;-87
2023/05/07 12:26:47;;;;;;;3.10;2.67;;;14.90;99.90;;;;;;6293824;22;20406;-87
2023/05/07 12:29:15;;;;;;;2.30;2.20;;;;;;;;;;6297631;22;20439;-87
2023/05/07 12:31:42;;;;;;;4.10;2.90;;;15.30;99.90;;;;;;6295221;22;20416;-87
2023/05/07 12:34:09;;;;;;;3.23;3.03;;;15.40;99.90;;;;;;6291433;22;21103;-87
2023/05/07 12:36:41;;;;;;;3.37;2.53;;;15.40;99.90;;;;;;6295185;22;20432;-87
2023/05/07 12:39:08;;;;;;;2.60;2.40;;;15.70;1.00;;;;;;6292686;22;20491;-87
2023/05/07 12:41:52;;;;;;;2.93;2.73;;;15.70;1.00;;;;;;6291995;22;20424;-87
2023/05/07 12:44:19;;;;;;;3.20;2.93;;;;;;;;;;6292760;22;20456;-87
2023/05/07 12:46:48;;;;;;;4.50;2.80;;;15.40;99.90;;;;;;6286681;22;20386;-88
2023/05/07 12:49:15;;;;;;;2.93;2.73;;;;;;;;;;6289929;22;20514;-89
2023/05/07 12:51:43;;;;;;;4.27;2.53;;;15.80;1.00;;;;;;6290414;22;20401;-88
2023/05/07 12:54:10;;;;;;;2.40;2.23;;;15.80;99.90;;;;;;6288757;22;20417;-88
2023/05/07 12:56:37;;;;;;;3.23;2.70;;;15.90;99.90;;;;;;6285372;22;20788;-89
2023/05/07 12:59:04;;;;;;;2.50;2.30;;;16.00;99.90;;;;;;6288514;22;20698;-89
2023/05/07 13:01:32;;;;;;;2.13;2.03;;;15.80;99.90;;;;;;6285416;22;20405;-88
2023/05/07 13:04:03;;;;;;;2.60;2.40;;;15.70;99.90;;;;;;6284637;22;20455;-89
2023/05/07 13:06:31;;;;;;;2.47;2.27;;;15.70;1.00;;;;;;6288855;22;20476;-87
2023/05/07 13:09:00;;;;;;;3.77;2.40;;;15.70;99.90;;;;;;6289679;22;20423;-87
2023/05/07 13:11:26;;;;;;;4.53;2.60;;;15.60;1.00;;;;;;6290911;22;20409;-88
2023/05/07 13:13:53;;;;;;;2.93;2.70;;;15.40;1.00;;;;;;6291291;22;20445;-88
2023/05/07 13:16:30;;;;;;;2.63;2.43;;;15.00;1.00;;;;;;6297977;22;20406;-89
2023/05/07 13:18:58;;;;;;;5.90;3.20;;;;;;;;;;6299430;22;20428;-88
2023/05/07 13:21:25;;;;;;;2.60;2.40;;;15.30;99.90;;;;;;6291215;22;20459;-88